createdAt,value
2023-05-14T00:00:50.994Z,1012.20
2023-05-14T00:01:50.984Z,1012.18
2023-05-14T00:02:50.989Z,1012.18
2023-05-14T00:03:50.984Z,1012.18
2023-05-14T00:04:50.906Z,1012.17
2023-05-14T00:05:50.839Z,1012.17
2023-05-14T00:06:50.868Z,1012.16
2023-05-14T00:07:50.858Z,1012.17
2023-05-14T00:08:50.827Z,1012.17
2023-05-14T00:09:50.793Z,1012.16
2023-05-14T00:10:50.838Z,1012.15
2023-05-14T00:11:50.773Z,1012.13
2023-05-14T00:12:50.788Z,1012.12
2023-05-14T00:13:50.773Z,1012.13
2023-05-14T00:14:50.801Z,1012.13
2023-05-14T00:15:50.835Z,1012.13
2023-05-14T00:16:50.743Z,1012.13
2023-05-14T00:17:50.747Z,1012.12
2023-05-14T00:18:50.778Z,1012.11
2023-05-14T00:19:50.720Z,1012.11
2023-05-14T00:20:50.703Z,1012.09
2023-05-14T00:21:50.673Z,1012.09
2023-05-14T00:22:50.682Z,1012.09
2023-05-14T00:23:50.655Z,1012.08
2023-05-14T00:24:50.656Z,1012.09
2023-05-14T00:25:50.657Z,1012.08
2023-05-14T00:26:50.654Z,1012.08
2023-05-14T00:27:50.600Z,1012.06
2023-05-14T00:28:50.613Z,1012.05
2023-05-14T00:29:50.604Z,1012.05
2023-05-14T00:30:50.610Z,1012.05
2023-05-14T00:31:50.870Z,1012.04
2023-05-14T00:32:50.663Z,1012.02
2023-05-14T00:33:50.541Z,1012.00
2023-05-14T00:34:50.546Z,1011.99
2023-05-14T00:35:50.531Z,1011.99
2023-05-14T00:36:50.532Z,1011.98
2023-05-14T00:37:50.526Z,1011.97
2023-05-14T00:38:50.516Z,1011.97
2023-05-14T00:39:50.479Z,1011.97
2023-05-14T00:40:50.487Z,1011.97
2023-05-14T00:41:50.459Z,1011.97
2023-05-14T00:42:50.478Z,1011.97
2023-05-14T00:43:50.458Z,1011.98
2023-05-14T00:44:50.465Z,1011.99
2023-05-14T00:45:50.420Z,1011.99
2023-05-14T00:46:50.460Z,1012.00
2023-05-14T00:47:50.507Z,1012.00
2023-05-14T00:48:50.411Z,1012.00
2023-05-14T00:49:50.384Z,1011.99
2023-05-14T00:50:50.381Z,1011.98
2023-05-14T00:51:50.349Z,1011.97
2023-05-14T00:52:50.362Z,1011.96
2023-05-14T00:53:50.328Z,1011.96
2023-05-14T00:54:50.358Z,1011.95
2023-05-14T00:55:50.345Z,1011.94
2023-05-14T00:56:50.335Z,1011.93
2023-05-14T00:57:50.287Z,1011.92
2023-05-14T00:58:50.304Z,1011.92
2023-05-14T00:59:50.260Z,1011.93
2023-05-14T01:00:50.322Z,1011.93
2023-05-14T01:01:50.259Z,1011.93
2023-05-14T01:02:50.301Z,1011.92
2023-05-14T01:03:50.333Z,1011.91
2023-05-14T01:04:50.226Z,1011.90
2023-05-14T01:05:50.199Z,1011.89
2023-05-14T01:06:50.206Z,1011.88
2023-05-14T01:07:50.193Z,1011.88
2023-05-14T01:08:50.183Z,1011.88
2023-05-14T01:09:50.173Z,1011.89
2023-05-14T01:10:50.166Z,1011.88
2023-05-14T01:11:50.144Z,1011.87
2023-05-14T01:12:50.146Z,1011.87
2023-05-14T01:13:50.132Z,1011.87
2023-05-14T01:14:50.119Z,1011.87
2023-05-14T01:15:50.083Z,1011.86
2023-05-14T01:16:50.161Z,1011.86
2023-05-14T01:17:50.097Z,1011.86
2023-05-14T01:18:50.134Z,1011.86
2023-05-14T01:19:50.072Z,1011.86
2023-05-14T01:20:50.051Z,1011.85
2023-05-14T01:21:50.025Z,1011.84
2023-05-14T01:22:50.059Z,1011.82
2023-05-14T01:23:50.004Z,1011.81
2023-05-14T01:24:50.008Z,1011.82
2023-05-14T01:25:50.033Z,1011.84
2023-05-14T01:26:49.996Z,1011.85
2023-05-14T01:27:49.958Z,1011.87
2023-05-14T01:28:49.967Z,1011.87
2023-05-14T01:29:49.984Z,1011.85
2023-05-14T01:30:49.920Z,1011.83
2023-05-14T01:31:49.968Z,1011.81
2023-05-14T01:32:49.998Z,1011.79
2023-05-14T01:33:49.892Z,1011.77
2023-05-14T01:34:49.904Z,1011.76
2023-05-14T01:35:49.880Z,1011.75
2023-05-14T01:36:49.894Z,1011.75
2023-05-14T01:37:49.869Z,1011.75
2023-05-14T01:38:49.893Z,1011.75
2023-05-14T01:39:49.843Z,1011.75
2023-05-14T01:40:49.850Z,1011.75
2023-05-14T01:41:49.809Z,1011.75
2023-05-14T01:42:49.872Z,1011.74
2023-05-14T01:43:49.828Z,1011.74
2023-05-14T01:44:49.803Z,1011.72
2023-05-14T01:45:49.798Z,1011.70
2023-05-14T01:46:49.782Z,1011.68
2023-05-14T01:47:49.792Z,1011.66
2023-05-14T01:48:49.751Z,1011.65
2023-05-14T01:49:49.736Z,1011.65
2023-05-14T01:50:49.737Z,1011.65
2023-05-14T01:51:49.695Z,1011.66
2023-05-14T01:52:49.706Z,1011.67
2023-05-14T01:53:49.672Z,1011.66
2023-05-14T01:54:49.696Z,1011.66
2023-05-14T01:55:49.847Z,1011.65
2023-05-14T01:56:49.666Z,1011.64
2023-05-14T01:57:49.654Z,1011.65
2023-05-14T01:58:49.646Z,1011.64
2023-05-14T01:59:49.607Z,1011.63
2023-05-14T02:00:49.637Z,1011.63
2023-05-14T02:01:49.661Z,1011.63
2023-05-14T02:02:49.631Z,1011.63
2023-05-14T02:03:49.576Z,1011.62
2023-05-14T02:04:49.581Z,1011.62
2023-05-14T02:05:49.544Z,1011.60
2023-05-14T02:06:49.563Z,1011.59
2023-05-14T02:07:49.549Z,1011.57
2023-05-14T02:08:49.539Z,1011.56
2023-05-14T02:09:49.502Z,1011.54
2023-05-14T02:10:49.510Z,1011.54
2023-05-14T02:11:49.485Z,1011.54
2023-05-14T02:12:49.490Z,1011.54
2023-05-14T02:13:49.472Z,1011.55
2023-05-14T02:14:49.499Z,1011.55
2023-05-14T02:15:49.467Z,1011.55
2023-05-14T02:16:49.480Z,1011.56
2023-05-14T02:17:49.449Z,1011.56
2023-05-14T02:18:49.473Z,1011.57
2023-05-14T02:19:49.421Z,1011.55
2023-05-14T02:20:49.405Z,1011.54
2023-05-14T02:21:49.380Z,1011.53
2023-05-14T02:22:49.414Z,1011.53
2023-05-14T02:23:49.372Z,1011.53
2023-05-14T02:24:49.359Z,1011.53
2023-05-14T02:25:49.376Z,1011.52
2023-05-14T02:26:49.362Z,1011.51
2023-05-14T02:27:49.314Z,1011.50
2023-05-14T02:28:49.318Z,1011.49
2023-05-14T02:29:49.289Z,1011.49
2023-05-14T02:30:49.298Z,1011.48
2023-05-14T02:31:49.452Z,1011.48
2023-05-14T02:32:49.404Z,1011.47
2023-05-14T02:33:49.239Z,1011.47
2023-05-14T02:34:49.279Z,1011.47
2023-05-14T02:35:49.235Z,1011.47
2023-05-14T02:36:49.228Z,1011.47
2023-05-14T02:37:49.221Z,1011.47
2023-05-14T02:38:49.213Z,1011.46
2023-05-14T02:39:49.230Z,1011.45
2023-05-14T02:40:49.190Z,1011.44
2023-05-14T02:41:49.167Z,1011.43
2023-05-14T02:42:49.173Z,1011.42
2023-05-14T02:43:49.170Z,1011.42
2023-05-14T02:44:49.163Z,1011.42
2023-05-14T02:45:49.113Z,1011.42
2023-05-14T02:46:49.157Z,1011.42
2023-05-14T02:47:49.144Z,1011.43
2023-05-14T02:48:49.120Z,1011.43
2023-05-14T02:49:49.282Z,1011.44
2023-05-14T02:50:49.082Z,1011.45
2023-05-14T02:51:49.080Z,1011.45
2023-05-14T02:52:49.074Z,1011.46
2023-05-14T02:53:49.031Z,1011.46
2023-05-14T02:54:49.041Z,1011.47
2023-05-14T02:55:49.043Z,1011.47
2023-05-14T02:56:49.016Z,1011.47
2023-05-14T02:57:48.996Z,1011.48
2023-05-14T02:58:49.001Z,1011.48
2023-05-14T02:59:48.979Z,1011.48
2023-05-14T03:00:48.991Z,1011.49
2023-05-14T03:01:48.960Z,1011.49
2023-05-14T03:02:49.022Z,1011.48
2023-05-14T03:03:48.932Z,1011.48
2023-05-14T03:06:16.590Z,1011.47
2023-05-14T03:06:21.892Z,1011.45
2023-05-14T03:07:21.900Z,1011.44
2023-05-14T03:08:21.860Z,1011.42
2023-05-14T03:09:21.872Z,1011.41
2023-05-14T03:10:22.036Z,1011.39
2023-05-14T03:11:21.855Z,1011.38
2023-05-14T03:12:21.804Z,1011.38
2023-05-14T03:13:21.830Z,1011.38
2023-05-14T03:14:21.810Z,1011.38
2023-05-14T03:15:21.792Z,1011.39
2023-05-14T03:16:21.814Z,1011.39
2023-05-14T03:17:21.815Z,1011.40
2023-05-14T03:18:21.734Z,1011.41
2023-05-14T03:19:21.773Z,1011.42
2023-05-14T03:20:21.957Z,1011.42
2023-05-14T03:21:21.738Z,1011.43
2023-05-14T03:22:21.693Z,1011.43
2023-05-14T03:23:21.727Z,1011.43
2023-05-14T03:24:21.683Z,1011.43
2023-05-14T03:25:21.722Z,1011.44
2023-05-14T03:26:21.692Z,1011.44
2023-05-14T03:27:21.671Z,1011.43
2023-05-14T03:28:21.632Z,1011.43
2023-05-14T03:29:21.645Z,1011.42
2023-05-14T03:30:22.043Z,1011.41
2023-05-14T03:31:21.757Z,1011.40
2023-05-14T03:32:21.629Z,1011.39
2023-05-14T03:33:21.613Z,1011.38
2023-05-14T03:34:21.584Z,1011.37
2023-05-14T03:35:21.576Z,1011.36
2023-05-14T03:36:21.546Z,1011.35
2023-05-14T03:37:21.589Z,1011.34
2023-05-14T03:38:21.522Z,1011.35
2023-05-14T03:39:21.547Z,1011.35
2023-05-14T03:40:21.969Z,1011.34
2023-05-14T03:41:21.526Z,1011.34
2023-05-14T03:42:21.486Z,1011.34
2023-05-14T03:43:21.516Z,1011.33
2023-05-14T03:44:21.457Z,1011.33
2023-05-14T03:45:21.476Z,1011.31
2023-05-14T03:46:21.437Z,1011.30
2023-05-14T03:47:21.455Z,1011.29
2023-05-14T03:48:21.525Z,1011.30
2023-05-14T03:49:21.458Z,1011.31
2023-05-14T03:50:21.568Z,1011.32
2023-05-14T03:51:21.407Z,1011.33
2023-05-14T03:52:21.373Z,1011.34
2023-05-14T03:53:21.428Z,1011.34
2023-05-14T03:54:21.351Z,1011.34
2023-05-14T03:55:21.403Z,1011.34
2023-05-14T03:56:21.367Z,1011.33
2023-05-14T03:57:21.389Z,1011.32
2023-05-14T03:58:21.332Z,1011.32
2023-05-14T03:59:21.320Z,1011.32
2023-05-14T04:00:21.607Z,1011.33
2023-05-14T04:01:21.345Z,1011.33
2023-05-14T04:02:21.298Z,1011.34
2023-05-14T04:03:21.402Z,1011.34
2023-05-14T04:04:21.316Z,1011.34
2023-05-14T04:05:21.232Z,1011.34
2023-05-14T04:06:21.260Z,1011.34
2023-05-14T04:07:21.235Z,1011.34
2023-05-14T04:08:21.234Z,1011.32
2023-05-14T04:09:21.191Z,1011.32
2023-05-14T04:10:21.251Z,1011.32
2023-05-14T04:11:21.171Z,1011.33
2023-05-14T04:12:21.179Z,1011.34
2023-05-14T04:13:21.195Z,1011.34
2023-05-14T04:14:21.164Z,1011.34
2023-05-14T04:15:21.137Z,1011.33
2023-05-14T04:16:21.262Z,1011.32
2023-05-14T04:17:21.107Z,1011.32
2023-05-14T04:18:21.113Z,1011.32
2023-05-14T04:19:21.121Z,1011.32
2023-05-14T04:20:21.153Z,1011.32
2023-05-14T04:21:21.057Z,1011.32
2023-05-14T04:22:21.083Z,1011.32
2023-05-14T04:23:21.036Z,1011.32
2023-05-14T04:24:21.068Z,1011.31
2023-05-14T04:25:21.030Z,1011.31
2023-05-14T04:26:21.032Z,1011.31
2023-05-14T04:27:21.024Z,1011.30
2023-05-14T04:28:21.020Z,1011.30
2023-05-14T04:29:20.978Z,1011.29
2023-05-14T04:30:21.166Z,1011.29
2023-05-14T04:31:21.009Z,1011.28
2023-05-14T04:32:21.014Z,1011.27
2023-05-14T04:33:20.928Z,1011.26
2023-05-14T04:34:20.974Z,1011.24
2023-05-14T04:35:23.355Z,1011.23
2023-05-14T04:36:20.915Z,1011.22
2023-05-14T04:37:20.928Z,1011.22
2023-05-14T04:38:20.898Z,1011.21
2023-05-14T04:39:20.866Z,1011.20
2023-05-14T04:40:20.883Z,1011.19
2023-05-14T04:41:20.853Z,1011.19
2023-05-14T04:42:20.853Z,1011.20
2023-05-14T04:43:20.858Z,1011.21
2023-05-14T04:44:20.855Z,1011.21
2023-05-14T04:45:20.801Z,1011.21
2023-05-14T04:46:20.871Z,1011.20
2023-05-14T04:47:20.804Z,1011.21
2023-05-14T04:48:20.795Z,1011.22
2023-05-14T04:49:20.801Z,1011.24
2023-05-14T04:50:20.839Z,1011.25
2023-05-14T04:51:20.729Z,1011.27
2023-05-14T04:52:20.747Z,1011.27
2023-05-14T04:53:20.716Z,1011.28
2023-05-14T04:54:20.767Z,1011.31
2023-05-14T04:55:20.726Z,1011.32
2023-05-14T04:56:20.705Z,1011.32
2023-05-14T04:57:20.668Z,1011.31
2023-05-14T04:58:20.701Z,1011.32
2023-05-14T04:59:20.647Z,1011.33
2023-05-14T05:00:20.758Z,1011.33
2023-05-14T05:01:20.698Z,1011.33
2023-05-14T05:02:20.646Z,1011.32
2023-05-14T05:03:20.762Z,1011.31
2023-05-14T05:04:20.635Z,1011.31
2023-05-14T05:05:20.588Z,1011.31
2023-05-14T05:06:20.628Z,1011.30
2023-05-14T05:07:20.580Z,1011.29
2023-05-14T05:08:20.583Z,1011.28
2023-05-14T05:09:20.580Z,1011.27
2023-05-14T05:10:20.582Z,1011.26
2023-05-14T05:11:20.529Z,1011.26
2023-05-14T05:12:20.536Z,1011.26
2023-05-14T05:13:20.534Z,1011.25
2023-05-14T05:14:20.535Z,1011.26
2023-05-14T05:15:20.489Z,1011.28
2023-05-14T05:16:20.512Z,1011.30
2023-05-14T05:17:20.526Z,1011.30
2023-05-14T05:18:20.460Z,1011.29
2023-05-14T05:19:26.557Z,1011.30
2023-05-14T05:20:20.499Z,1011.29
2023-05-14T05:21:20.426Z,1011.28
2023-05-14T05:22:20.431Z,1011.27
2023-05-14T05:23:20.400Z,1011.25
2023-05-14T05:24:20.471Z,1011.25
2023-05-14T05:25:20.410Z,1011.24
2023-05-14T05:26:20.392Z,1011.24
2023-05-14T05:27:20.360Z,1011.23
2023-05-14T05:28:20.363Z,1011.23
2023-05-14T05:29:20.350Z,1011.25
2023-05-14T05:30:20.386Z,1011.24
2023-05-14T05:31:20.380Z,1011.24
2023-05-14T05:32:20.334Z,1011.25
2023-05-14T05:33:20.298Z,1011.25
2023-05-14T05:34:20.302Z,1011.25
2023-05-14T05:35:20.264Z,1011.25
2023-05-14T05:36:20.281Z,1011.23
2023-05-14T05:37:20.274Z,1011.23
2023-05-14T05:38:20.257Z,1011.23
2023-05-14T05:39:20.224Z,1011.24
2023-05-14T05:40:20.240Z,1011.24
2023-05-14T05:41:20.201Z,1011.25
2023-05-14T05:42:20.226Z,1011.26
2023-05-14T05:43:20.201Z,1011.26
2023-05-14T05:44:20.192Z,1011.25
2023-05-14T05:45:20.178Z,1011.24
2023-05-14T05:46:20.229Z,1011.23
2023-05-14T05:47:20.150Z,1011.22
2023-05-14T05:48:20.145Z,1011.20
2023-05-14T05:49:20.142Z,1011.20
2023-05-14T05:50:20.228Z,1011.18
2023-05-14T05:51:20.086Z,1011.18
2023-05-14T05:52:20.110Z,1011.18
2023-05-14T05:53:20.085Z,1011.18
2023-05-14T05:54:20.084Z,1011.18
2023-05-14T05:55:20.086Z,1011.17
2023-05-14T05:56:20.065Z,1011.16
2023-05-14T05:57:20.032Z,1011.16
2023-05-14T05:58:20.051Z,1011.17
2023-05-14T05:59:20.008Z,1011.17
2023-05-14T06:00:20.031Z,1011.18
2023-05-14T06:01:20.010Z,1011.19
2023-05-14T06:02:20.086Z,1011.21
2023-05-14T06:03:20.008Z,1011.22
2023-05-14T06:04:19.974Z,1011.23
2023-05-14T06:05:20.032Z,1011.22
2023-05-14T06:06:19.957Z,1011.22
2023-05-14T06:07:19.941Z,1011.23
2023-05-14T06:08:19.940Z,1011.23
2023-05-14T06:09:19.895Z,1011.24
2023-05-14T06:10:19.909Z,1011.26
2023-05-14T06:11:19.878Z,1011.27
2023-05-14T06:12:19.891Z,1011.28
2023-05-14T06:13:19.886Z,1011.29
2023-05-14T06:14:19.867Z,1011.30
2023-05-14T06:15:19.856Z,1011.31
2023-05-14T06:16:19.893Z,1011.33
2023-05-14T06:17:19.852Z,1011.34
2023-05-14T06:18:19.822Z,1011.36
2023-05-14T06:19:19.934Z,1011.38
2023-05-14T06:20:19.802Z,1011.40
2023-05-14T06:21:19.836Z,1011.41
2023-05-14T06:22:19.778Z,1011.41
2023-05-14T06:23:19.748Z,1011.42
2023-05-14T06:24:19.758Z,1011.43
2023-05-14T06:25:19.746Z,1011.43
2023-05-14T06:26:19.955Z,1011.45
2023-05-14T06:27:19.705Z,1011.45
2023-05-14T06:28:19.731Z,1011.45
2023-05-14T06:29:19.690Z,1011.45
2023-05-14T06:30:19.707Z,1011.46
2023-05-14T06:31:19.719Z,1011.45
2023-05-14T06:32:19.748Z,1011.45
2023-05-14T06:33:20.630Z,1011.44
2023-05-14T06:34:19.661Z,1011.42
2023-05-14T06:35:19.626Z,1011.42
2023-05-14T06:36:19.636Z,1011.42
2023-05-14T06:37:19.648Z,1011.42
2023-05-14T06:38:19.621Z,1011.43
2023-05-14T06:39:19.571Z,1011.44
2023-05-14T06:40:19.584Z,1011.44
2023-05-14T06:41:19.563Z,1011.43
2023-05-14T06:42:19.573Z,1011.41
2023-05-14T06:43:19.649Z,1011.40
2023-05-14T06:44:19.554Z,1011.39
2023-05-14T06:45:19.531Z,1011.38
2023-05-14T06:46:19.525Z,1011.37
2023-05-14T06:47:19.488Z,1011.36
2023-05-14T06:48:19.656Z,1011.35
2023-05-14T06:49:19.497Z,1011.33
2023-05-14T06:50:19.484Z,1011.32
2023-05-14T06:51:19.462Z,1011.32
2023-05-14T06:52:19.456Z,1011.31
2023-05-14T06:53:19.429Z,1011.30
2023-05-14T06:54:19.442Z,1011.30
2023-05-14T06:55:19.432Z,1011.30
2023-05-14T06:56:19.422Z,1011.30
2023-05-14T06:57:19.380Z,1011.30
2023-05-14T06:58:19.404Z,1011.31
2023-05-14T06:59:19.367Z,1011.31
2023-05-14T07:00:19.377Z,1011.31
2023-05-14T07:01:19.385Z,1011.29
2023-05-14T07:02:19.353Z,1011.29
2023-05-14T07:03:19.319Z,1011.28
2023-05-14T07:04:19.432Z,1011.28
2023-05-14T07:05:19.298Z,1011.28
2023-05-14T07:06:19.309Z,1011.27
2023-05-14T07:07:19.309Z,1011.27
2023-05-14T07:08:19.290Z,1011.26
2023-05-14T07:09:19.248Z,1011.25
2023-05-14T07:10:19.263Z,1011.24
2023-05-14T07:11:19.275Z,1011.23
2023-05-14T07:12:19.253Z,1011.23
2023-05-14T07:13:19.223Z,1011.21
2023-05-14T07:14:19.217Z,1011.19
2023-05-14T07:15:19.199Z,1011.18
2023-05-14T07:16:19.197Z,1011.18
2023-05-14T07:17:19.213Z,1011.16
2023-05-14T07:18:19.186Z,1011.16
2023-05-14T07:19:19.252Z,1011.15
2023-05-14T07:20:19.159Z,1011.16
2023-05-14T07:21:19.158Z,1011.15
2023-05-14T07:22:19.142Z,1011.14
2023-05-14T07:23:20.046Z,1011.13
2023-05-14T07:24:19.132Z,1011.12
2023-05-14T07:25:19.098Z,1011.10
2023-05-14T07:26:19.096Z,1011.08
2023-05-14T07:27:19.064Z,1011.06
2023-05-14T07:28:19.076Z,1011.03
2023-05-14T07:29:19.032Z,1011.03
2023-05-14T07:30:19.063Z,1011.01
2023-05-14T07:31:19.077Z,1010.99
2023-05-14T07:32:19.023Z,1010.98
2023-05-14T07:33:19.005Z,1010.97
2023-05-14T07:34:19.017Z,1010.96
2023-05-14T07:35:18.970Z,1010.96
2023-05-14T07:36:19.108Z,1010.95
2023-05-14T07:37:18.973Z,1010.93
2023-05-14T07:38:18.965Z,1010.91
2023-05-14T07:39:18.925Z,1010.88
2023-05-14T07:40:18.936Z,1010.86
2023-05-14T07:41:18.909Z,1010.85
2023-05-14T07:42:31.638Z,1010.87
2023-05-14T07:43:18.902Z,1010.84
2023-05-14T07:44:18.894Z,1010.83
2023-05-14T07:45:18.852Z,1010.81
2023-05-14T07:46:18.880Z,1010.80
2023-05-14T07:47:18.866Z,1010.78
2023-05-14T07:48:18.873Z,1010.77
2023-05-14T07:49:18.882Z,1010.76
2023-05-14T07:50:18.848Z,1010.74
2023-05-14T07:51:18.852Z,1010.73
2023-05-14T07:52:18.822Z,1010.72
2023-05-14T07:53:18.781Z,1010.71
2023-05-14T07:54:18.784Z,1010.72
2023-05-14T07:55:18.773Z,1010.70
2023-05-14T07:56:18.760Z,1010.69
2023-05-14T07:57:18.734Z,1010.68
2023-05-14T07:58:18.744Z,1010.66
2023-05-14T07:59:18.707Z,1010.67
2023-05-14T08:00:18.792Z,1010.66
2023-05-14T08:01:18.721Z,1010.65
2023-05-14T08:02:18.752Z,1010.64
2023-05-14T08:03:18.785Z,1010.64
2023-05-14T08:04:18.814Z,1010.63
2023-05-14T08:05:18.653Z,1010.61
2023-05-14T08:06:18.654Z,1010.61
2023-05-14T08:07:18.642Z,1010.59
2023-05-14T08:08:18.637Z,1010.60
2023-05-14T08:09:18.610Z,1010.59
2023-05-14T08:10:18.622Z,1010.59
2023-05-14T08:11:18.661Z,1010.58
2023-05-14T08:12:18.602Z,1010.57
2023-05-14T08:13:18.633Z,1010.56
2023-05-14T08:14:18.558Z,1010.56
2023-05-14T08:15:18.559Z,1010.55
2023-05-14T08:16:18.549Z,1010.55
2023-05-14T08:17:18.563Z,1010.55
2023-05-14T08:18:18.531Z,1010.55
2023-05-14T08:19:18.649Z,1010.54
2023-05-14T08:20:18.486Z,1010.52
2023-05-14T08:21:18.496Z,1010.52
2023-05-14T08:22:18.465Z,1010.51
2023-05-14T08:23:18.537Z,1010.51
2023-05-14T08:24:18.439Z,1010.51
2023-05-14T08:25:18.466Z,1010.52
2023-05-14T08:26:18.425Z,1010.50
2023-05-14T08:27:18.435Z,1010.49
2023-05-14T08:28:18.405Z,1010.49
2023-05-14T08:29:18.417Z,1010.47
2023-05-14T08:30:18.389Z,1010.46
2023-05-14T08:31:18.483Z,1010.46
2023-05-14T08:32:23.307Z,1010.47
2023-05-14T08:33:18.374Z,1010.46
2023-05-14T08:34:18.351Z,1010.46
2023-05-14T08:35:18.352Z,1010.47
2023-05-14T08:36:18.322Z,1010.45
2023-05-14T08:37:18.335Z,1010.45
2023-05-14T08:38:18.321Z,1010.44
2023-05-14T08:39:18.318Z,1010.44
2023-05-14T08:40:18.308Z,1010.43
2023-05-14T08:41:18.286Z,1010.43
2023-05-14T08:42:18.260Z,1010.41
2023-05-14T08:43:18.310Z,1010.39
2023-05-14T08:44:18.230Z,1010.37
2023-05-14T08:45:18.254Z,1010.37
2023-05-14T08:46:18.222Z,1010.33
2023-05-14T08:47:18.231Z,1010.31
2023-05-14T08:48:18.260Z,1010.33
2023-05-14T08:49:18.226Z,1010.29
2023-05-14T08:50:18.933Z,1010.28
2023-05-14T08:51:18.188Z,1010.25
2023-05-14T08:52:18.175Z,1010.24
2023-05-14T08:53:18.165Z,1010.22
2023-05-14T08:54:18.205Z,1010.21
2023-05-14T08:55:18.156Z,1010.21
2023-05-14T08:56:18.106Z,1010.18
2023-05-14T08:57:18.112Z,1010.15
2023-05-14T08:58:18.087Z,1010.14
2023-05-14T08:59:18.094Z,1010.14
2023-05-14T09:00:18.065Z,1010.12
2023-05-14T09:01:18.101Z,1010.13
2023-05-14T09:02:18.040Z,1010.13
2023-05-14T09:03:18.072Z,1010.12
2023-05-14T09:04:18.052Z,1010.13
2023-05-14T09:05:18.057Z,1010.11
2023-05-14T09:06:17.992Z,1010.08
2023-05-14T09:07:18.034Z,1010.05
2023-05-14T09:08:17.969Z,1010.05
2023-05-14T09:09:17.993Z,1010.03
2023-05-14T09:10:17.952Z,1010.02
2023-05-14T09:11:17.988Z,1010.00
2023-05-14T09:12:17.934Z,1009.99
2023-05-14T09:13:17.960Z,1009.99
2023-05-14T09:14:17.929Z,1009.97
2023-05-14T09:15:17.930Z,1009.97
2023-05-14T09:16:17.948Z,1009.96
2023-05-14T09:17:17.925Z,1009.97
2023-05-14T09:18:17.887Z,1009.98
2023-05-14T09:19:17.989Z,1009.97
2023-05-14T09:20:17.868Z,1009.96
2023-05-14T09:21:17.882Z,1009.95
2023-05-14T09:22:17.844Z,1009.95
2023-05-14T09:23:17.848Z,1009.93
2023-05-14T09:24:17.812Z,1009.93
2023-05-14T09:25:17.872Z,1009.90
2023-05-14T09:26:17.821Z,1009.90
2023-05-14T09:27:17.807Z,1009.89
2023-05-14T09:28:17.768Z,1009.90
2023-05-14T09:29:17.783Z,1009.91
2023-05-14T09:30:17.756Z,1009.93
2023-05-14T09:31:17.871Z,1010.01
2023-05-14T09:32:17.729Z,1010.00
2023-05-14T09:33:17.755Z,1009.95
2023-05-14T09:34:17.941Z,1009.93
2023-05-14T09:35:18.054Z,1009.94
2023-05-14T09:36:17.688Z,1009.92
2023-05-14T09:37:17.728Z,1009.91
2023-05-14T09:38:17.669Z,1009.91
2023-05-14T09:39:17.693Z,1009.91
2023-05-14T09:40:17.651Z,1009.91
2023-05-14T09:41:17.659Z,1009.86
2023-05-14T09:42:17.629Z,1009.86
2023-05-14T09:43:17.653Z,1009.87
2023-05-14T09:44:17.642Z,1009.82
2023-05-14T09:45:17.621Z,1009.82
2023-05-14T09:46:17.580Z,1009.80
2023-05-14T09:47:17.634Z,1009.79
2023-05-14T09:48:17.635Z,1009.77
2023-05-14T09:49:17.609Z,1009.76
2023-05-14T09:50:17.576Z,1009.73
2023-05-14T09:51:17.552Z,1009.74
2023-05-14T09:52:17.546Z,1009.76
2023-05-14T09:53:17.541Z,1009.78
2023-05-14T09:54:17.556Z,1009.76
2023-05-14T09:55:17.545Z,1009.77
2023-05-14T09:56:17.488Z,1009.76
2023-05-14T09:57:17.489Z,1009.76
2023-05-14T09:58:17.457Z,1009.75
2023-05-14T09:59:17.473Z,1009.73
2023-05-14T10:00:17.438Z,1009.71
2023-05-14T10:01:17.517Z,1009.68
2023-05-14T10:02:17.408Z,1009.72
2023-05-14T10:03:19.860Z,1009.73
2023-05-14T10:04:17.421Z,1009.71
2023-05-14T10:05:17.421Z,1009.69
2023-05-14T10:06:17.375Z,1009.68
2023-05-14T10:07:17.412Z,1009.67
2023-05-14T10:08:17.356Z,1009.65
2023-05-14T10:09:17.373Z,1009.60
2023-05-14T10:10:17.348Z,1009.65
2023-05-14T10:11:17.351Z,1009.71
2023-05-14T10:12:17.332Z,1009.69
2023-05-14T10:13:17.346Z,1009.64
2023-05-14T10:14:17.291Z,1009.60
2023-05-14T10:15:17.312Z,1009.59
2023-05-14T10:16:17.271Z,1009.55
2023-05-14T10:17:17.322Z,1009.65
2023-05-14T10:18:17.277Z,1009.72
2023-05-14T10:19:17.378Z,1009.73
2023-05-14T10:20:17.228Z,1009.76
2023-05-14T10:21:17.264Z,1009.74
2023-05-14T10:22:17.205Z,1009.74
2023-05-14T10:23:17.220Z,1009.78
2023-05-14T10:24:17.202Z,1009.82
2023-05-14T10:25:17.225Z,1009.71
2023-05-14T10:26:17.167Z,1009.65
2023-05-14T10:27:17.193Z,1009.60
2023-05-14T10:28:17.142Z,1009.56
2023-05-14T10:29:17.158Z,1009.56
2023-05-14T10:30:17.132Z,1009.51
2023-05-14T10:31:17.218Z,1009.53
2023-05-14T10:32:17.133Z,1009.52
2023-05-14T10:33:17.150Z,1009.48
2023-05-14T10:34:17.113Z,1009.45
2023-05-14T10:35:17.127Z,1009.45
2023-05-14T10:36:17.078Z,1009.41
2023-05-14T10:37:17.110Z,1009.40
2023-05-14T10:38:17.096Z,1009.40
2023-05-14T10:39:17.060Z,1009.43
2023-05-14T10:40:17.020Z,1009.39
2023-05-14T10:41:17.045Z,1009.39
2023-05-14T10:42:17.006Z,1009.34
2023-05-14T10:43:17.046Z,1009.35
2023-05-14T10:44:16.990Z,1009.37
2023-05-14T10:45:17.016Z,1009.36
2023-05-14T10:46:17.006Z,1009.34
2023-05-14T10:47:16.992Z,1009.34
2023-05-14T10:48:17.006Z,1009.29
2023-05-14T10:49:25.329Z,1009.26
2023-05-14T10:50:16.926Z,1009.24
2023-05-14T10:51:17.035Z,1009.22
2023-05-14T10:52:16.912Z,1009.21
2023-05-14T10:53:16.912Z,1009.18
2023-05-14T10:54:16.888Z,1009.18
2023-05-14T10:55:16.991Z,1009.17
2023-05-14T10:56:16.866Z,1009.20
2023-05-14T10:57:16.877Z,1009.22
2023-05-14T10:58:16.838Z,1009.18
2023-05-14T10:59:16.867Z,1009.21
2023-05-14T11:00:16.830Z,1009.19
2023-05-14T11:01:16.860Z,1009.16
2023-05-14T11:02:16.841Z,1009.16
2023-05-14T11:03:16.869Z,1009.14
2023-05-14T11:04:16.855Z,1009.14
2023-05-14T11:05:16.837Z,1009.13
2023-05-14T11:06:16.799Z,1009.14
2023-05-14T11:07:16.791Z,1009.15
2023-05-14T11:08:16.749Z,1009.15
2023-05-14T11:09:16.784Z,1009.22
2023-05-14T11:10:16.797Z,1009.28
2023-05-14T11:11:16.742Z,1009.25
2023-05-14T11:12:16.718Z,1009.20
2023-05-14T11:13:16.742Z,1009.19
2023-05-14T11:14:16.696Z,1009.17
2023-05-14T11:15:16.745Z,1009.18
2023-05-14T11:16:23.190Z,1009.16
2023-05-14T11:17:16.745Z,1009.14
2023-05-14T11:18:16.701Z,1009.13
2023-05-14T11:19:16.811Z,1009.08
2023-05-14T11:20:16.664Z,1009.08
2023-05-14T11:21:16.674Z,1009.08
2023-05-14T11:22:16.610Z,1009.06
2023-05-14T11:23:16.616Z,1009.05
2023-05-14T11:24:16.599Z,1009.12
2023-05-14T11:25:16.629Z,1009.14
2023-05-14T11:26:16.804Z,1009.15
2023-05-14T11:27:16.590Z,1009.12
2023-05-14T11:28:16.560Z,1009.08
2023-05-14T11:29:16.562Z,1009.09
2023-05-14T11:30:16.572Z,1009.06
2023-05-14T11:31:16.586Z,1009.03
2023-05-14T11:32:16.516Z,1009.02
2023-05-14T11:33:16.552Z,1008.99
2023-05-14T11:34:16.505Z,1008.97
2023-05-14T11:35:16.506Z,1009.00
2023-05-14T11:36:16.486Z,1008.97
2023-05-14T11:37:16.528Z,1008.97
2023-05-14T11:38:16.455Z,1008.98
2023-05-14T11:39:16.462Z,1008.97
2023-05-14T11:40:16.543Z,1008.97
2023-05-14T11:41:16.457Z,1008.95
2023-05-14T11:42:16.419Z,1008.92
2023-05-14T11:43:16.452Z,1008.91
2023-05-14T11:44:16.403Z,1008.89
2023-05-14T11:45:16.403Z,1008.93
2023-05-14T11:46:16.399Z,1008.93
2023-05-14T11:47:16.394Z,1009.01
2023-05-14T11:48:16.357Z,1009.04
2023-05-14T11:49:16.532Z,1009.10
2023-05-14T11:50:16.393Z,1009.13
2023-05-14T11:51:16.349Z,1009.15
2023-05-14T11:52:16.354Z,1009.17
2023-05-14T11:53:16.334Z,1009.15
2023-05-14T11:54:16.304Z,1009.06
2023-05-14T11:55:16.345Z,1009.02
2023-05-14T11:56:16.313Z,1009.03
2023-05-14T11:57:16.360Z,1009.01
2023-05-14T11:58:16.248Z,1009.01
2023-05-14T11:59:16.262Z,1009.01
2023-05-14T12:00:16.283Z,1009.02
2023-05-14T12:01:16.372Z,1009.03
2023-05-14T12:02:16.232Z,1009.02
2023-05-14T12:03:16.378Z,1009.01
2023-05-14T12:04:16.214Z,1009.01
2023-05-14T12:05:16.214Z,1008.99
2023-05-14T12:06:16.151Z,1009.00